| time (UTC) | temp C | wind direction | speed KPH | gust KPH | rain 1hr cm | rain 24hr cm | rain mn cm | humidity % | barometer mb |
| 20260508063520 | 15 | 153 | 3.2 | 6.4 | 0.00 | 0.10 | 0.10 | 90 | 1014.8 |
| 20260508062536 | 15 | 108 | 3.2 | 6.4 | 0.00 | 0.10 | 0.10 | 90 | 1014.8 |
| 20260508061533 | 15 | 149 | 3.2 | 6.4 | 0.00 | 0.10 | 0.10 | 91 | 1014.8 |
| 20260508060548 | 15 | 126 | 3.2 | 6.4 | 0.00 | 0.10 | 0.10 | 90 | 1014.7 |
| 20260508055524 | 15 | 103 | 1.6 | 3.2 | 0.00 | 0.10 | 0.10 | 91 | 1014.7 |
| 20260508054520 | 14 | 129 | 1.6 | 4.8 | 0.00 | 0.10 | 0.10 | 91 | 1014.7 |
| 20260508053516 | 14 | 131 | 1.6 | 4.8 | 0.00 | 0.10 | 0.10 | 92 | 1014.7 |
| 20260508052533 | 13 | 136 | 1.6 | 4.8 | 0.00 | 0.10 | 0.10 | 93 | 1014.7 |
| 20260508051549 | 13 | 110 | 1.6 | 4.8 | 0.00 | 0.10 | 0.10 | 93 | 1014.6 |
| 20260508050525 | 13 | 78 | 3.2 | 6.4 | 0.00 | 0.10 | 0.10 | 93 | 1014.8 |
| 20260508045541 | 13 | 158 | 1.6 | 3.2 | 0.00 | 0.10 | 0.10 | 93 | 1014.7 |
| 20260508044517 | 13 | 120 | 3.2 | 8.0 | 0.00 | 0.10 | 0.10 | 94 | 1014.6 |
| 20260508043613 | 12 | 111 | 3.2 | 6.4 | 0.03 | 0.10 | 0.10 | 94 | 1014.7 |
| 20260508042530 | 12 | 96 | 3.2 | 6.4 | 0.03 | 0.10 | 0.10 | 94 | 1014.7 |
| 20260508041546 | 12 | 110 | 6.4 | 8.0 | 0.03 | 0.10 | 0.10 | 94 | 1014.7 |
| 20260508040522 | 12 | 58 | 3.2 | 4.8 | 0.03 | 0.10 | 0.10 | 93 | 1014.6 |
| 20260508035517 | 12 | 102 | 3.2 | 4.8 | 0.03 | 0.10 | 0.10 | 93 | 1014.4 |
| 20260508034536 | 12 | 62 | 3.2 | 8.0 | 0.03 | 0.10 | 0.10 | 93 | 1014.5 |
| 20260508033530 | 12 | 185 | 3.2 | 4.8 | 0.05 | 0.10 | 0.10 | 92 | 1014.3 |
| 20260508032526 | 12 | 167 | 6.4 | 9.7 | 0.05 | 0.10 | 0.10 | 92 | 1014.2 |
| 20260508031523 | 12 | 150 | 3.2 | 6.4 | 0.08 | 0.10 | 0.10 | 92 | 1014.2 |
| 20260508030518 | 12 | 105 | 3.2 | 4.8 | 0.10 | 0.10 | 0.10 | 92 | 1014.2 |
| 20260508025535 | 12 | 164 | 3.2 | 6.4 | 0.10 | 0.10 | 0.10 | 92 | 1014.2 |
| 20260508024530 | 12 | 153 | 1.6 | 4.8 | 0.08 | 0.08 | 0.08 | 91 | 1014.2 |
| 20260508023532 | 12 | 120 | 1.6 | 3.2 | 0.05 | 0.05 | 0.05 | 90 | 1014.3 |
| 20260508022523 | 12 | 123 | 1.6 | 3.2 | 0.05 | 0.05 | 0.05 | 89 | 1014.2 |
| 20260508021540 | 12 | 112 | 1.6 | 3.2 | 0.00 | 0.00 | 0.00 | 88 | 1014.2 |
| 20260508020555 | 12 | 115 | 1.6 | 3.2 | 0.00 | 0.00 | 0.00 | 87 | 1014.0 |
| 20260508015531 | 12 | 113 | 1.6 | 3.2 | 0.00 | 0.00 | 0.00 | 87 | 1014.1 |
| 20260508014527 | 12 | 127 | 1.6 | 3.2 | 0.00 | 0.00 | 0.00 | 86 | 1014.1 |
| 20260508013524 | 12 | 67 | 0.0 | 3.2 | 0.00 | 0.00 | 0.00 | 86 | 1014.0 |
| 20260508012521 | 13 | 79 | 3.2 | 4.8 | 0.00 | 0.00 | 0.00 | 86 | 1014.2 |
| 20260508011516 | 13 | 69 | 0.0 | 3.2 | 0.00 | 0.00 | 0.00 | 85 | 1014.1 |
| 20260508010531 | 13 | 87 | 3.2 | 4.8 | 0.00 | 0.00 | 0.00 | 85 | 1014.1 |
| 20260508005527 | 13 | 146 | 3.2 | 6.4 | 0.00 | 0.00 | 0.00 | 84 | 1014.3 |
| 20260508004544 | 13 | 109 | 3.2 | 4.8 | 0.00 | 0.00 | 0.00 | 84 | 1014.0 |
| 20260508003519 | 13 | 99 | 1.6 | 4.8 | 0.00 | 0.00 | 0.00 | 84 | 1014.1 |
| 20260508002516 | 13 | 99 | 3.2 | 4.8 | 0.00 | 0.00 | 0.00 | 84 | 1013.8 |
| 20260508001551 | 13 | 92 | 3.2 | 3.2 | 0.00 | 0.00 | 0.00 | 84 | 1014.0 |
| 20260508000547 | 13 | 132 | 1.6 | 4.8 | 0.00 | 0.00 | 0.00 | 83 | 1014.1 |
| 20260507235523 | 13 | 133 | 3.2 | 4.8 | 0.00 | 0.00 | 0.00 | 83 | 1013.9 |
| 20260507234519 | 13 | 120 | 3.2 | 3.2 | 0.00 | 0.00 | 0.00 | 83 | 1013.9 |
| 20260507233535 | 13 | 120 | 3.2 | 4.8 | 0.00 | 0.00 | 0.00 | 82 | 1014.0 |
| 20260507232530 | 13 | 122 | 3.2 | 3.2 | 0.00 | 0.00 | 0.00 | 82 | 1013.9 |
| 20260507231527 | 13 | 105 | 3.2 | 4.8 | 0.00 | 0.00 | 0.00 | 81 | 1013.9 |
| 20260507230524 | 13 | 138 | 1.6 | 4.8 | 0.00 | 0.00 | 0.00 | 80 | 1013.9 |
| 20260507225519 | 13 | 104 | 3.2 | 4.8 | 0.00 | 0.00 | 0.00 | 79 | 1014.0 |
| 20260507224536 | 13 | 135 | 3.2 | 4.8 | 0.00 | 0.00 | 0.00 | 79 | 1013.9 |
| 20260507223552 | 13 | 123 | 3.2 | 3.2 | 0.00 | 0.00 | 0.00 | 78 | 1013.8 |
| 20260507222527 | 13 | 128 | 3.2 | 3.2 | 0.00 | 0.00 | 0.00 | 77 | 1014.0 |
| 20260507221523 | 14 | 147 | 3.2 | 4.8 | 0.00 | 0.00 | 0.00 | 77 | 1014.1 |
| 20260507220520 | 13 | 121 | 1.6 | 3.2 | 0.00 | 0.00 | 0.00 | 76 | 1014.0 |
| 20260507215516 | 14 | 140 | 1.6 | 3.2 | 0.00 | 0.00 | 0.00 | 75 | 1013.9 |
| 20260507214533 | 15 | 137 | 3.2 | 4.8 | 0.00 | 0.00 | 0.00 | 74 | 1013.8 |
| 20260507213529 | 15 | 138 | 3.2 | 4.8 | 0.00 | 0.00 | 0.00 | 73 | 1013.8 |
| 20260507212525 | 15 | 149 | 3.2 | 6.4 | 0.00 | 0.00 | 0.00 | 72 | 1013.7 |
| 20260507211521 | 15 | 152 | 4.8 | 9.7 | 0.00 | 0.00 | 0.00 | 70 | 1013.6 |
| 20260507210557 | 15 | 152 | 3.2 | 9.7 | 0.00 | 0.00 | 0.00 | 70 | 1013.5 |
| 20260507205534 | 16 | 139 | 3.2 | 6.4 | 0.00 | 0.00 | 0.00 | 69 | 1013.5 |
| 20260507204531 | 16 | 158 | 4.8 | 9.7 | 0.00 | 0.00 | 0.00 | 68 | 1013.5 |
| 20260507203526 | 16 | 133 | 3.2 | 4.8 | 0.00 | 0.00 | 0.00 | 69 | 1013.7 |
| 20260507202523 | 16 | 140 | 3.2 | 4.8 | 0.00 | 0.00 | 0.00 | 69 | 1013.5 |
| 20260507201519 | 16 | 130 | 3.2 | 4.8 | 0.00 | 0.00 | 0.00 | 68 | 1013.5 |
| 20260507200555 | 16 | 113 | 1.6 | 4.8 | 0.00 | 0.00 | 0.00 | 68 | 1013.6 |
| 20260507195532 | 16 | 121 | 1.6 | 3.2 | 0.00 | 0.00 | 0.00 | 66 | 1013.6 |
| 20260507194528 | 17 | 135 | 1.6 | 3.2 | 0.00 | 0.00 | 0.00 | 65 | 1013.6 |
| 20260507193524 | 17 | 112 | 1.6 | 4.8 | 0.00 | 0.00 | 0.00 | 63 | 1013.8 |
| 20260507192519 | 17 | 145 | 3.2 | 6.4 | 0.00 | 0.00 | 0.00 | 61 | 1013.8 |
| 20260507191516 | 18 | 153 | 3.2 | 6.4 | 0.00 | 0.00 | 0.00 | 60 | 1013.7 |
| 20260507190553 | 18 | 170 | 4.8 | 6.4 | 0.00 | 0.00 | 0.00 | 59 | 1013.6 |
| 20260507185554 | 19 | 169 | 3.2 | 9.7 | 0.00 | 0.00 | 0.00 | 57 | 1013.5 |
| 20260507184525 | 19 | 165 | 4.8 | 8.0 | 0.00 | 0.00 | 0.00 | 57 | 1013.4 |
| 20260507183521 | 19 | 169 | 4.8 | 9.7 | 0.00 | 0.00 | 0.00 | 56 | 1013.4 |
| 20260507182517 | 20 | 161 | 3.2 | 6.4 | 0.00 | 0.00 | 0.00 | 56 | 1013.4 |
| 20260507181538 | 20 | 169 | 3.2 | 8.0 | 0.00 | 0.00 | 0.00 | 55 | 1013.4 |
| 20260507180530 | 20 | 169 | 3.2 | 9.7 | 0.00 | 0.00 | 0.00 | 55 | 1013.4 |
| 20260507175526 | 20 | 157 | 3.2 | 8.0 | 0.00 | 0.00 | 0.00 | 53 | 1013.2 |
| 20260507174542 | 21 | 185 | 6.4 | 9.7 | 0.00 | 0.00 | 0.00 | 52 | 1013.3 |
| 20260507173518 | 21 | 190 | 8.0 | 12.9 | 0.00 | 0.00 | 0.00 | 52 | 1013.2 |
| 20260507172535 | 21 | 185 | 4.8 | 9.7 | 0.00 | 0.00 | 0.00 | 52 | 1013.1 |
| 20260507171536 | 21 | 174 | 3.2 | 6.4 | 0.00 | 0.00 | 0.00 | 52 | 1012.9 |
| 20260507170527 | 21 | 177 | 1.6 | 3.2 | 0.00 | 0.00 | 0.00 | 53 | 1013.1 |
| 20260507165523 | 22 | 236 | 0.0 | 3.2 | 0.00 | 0.00 | 0.00 | 51 | 1012.9 |
| 20260507164520 | 22 | 180 | 1.6 | 4.8 | 0.00 | 0.00 | 0.00 | 50 | 1012.7 |
| 20260507163535 | 22 | 158 | 1.6 | 4.8 | 0.00 | 0.00 | 0.00 | 49 | 1012.5 |
| 20260507162532 | 22 | 173 | 3.2 | 6.4 | 0.00 | 0.00 | 0.00 | 48 | 1012.4 |
| 20260507161528 | 22 | 174 | 3.2 | 6.4 | 0.00 | 0.00 | 0.00 | 47 | 1012.4 |
| 20260507160544 | 23 | 167 | 3.2 | 6.4 | 0.00 | 0.00 | 0.00 | 46 | 1012.4 |
| 20260507155540 | 23 | 180 | 4.8 | 9.7 | 0.00 | 0.00 | 0.00 | 45 | 1012.3 |
| 20260507154536 | 23 | 173 | 3.2 | 9.7 | 0.00 | 0.00 | 0.00 | 44 | 1012.2 |
| 20260507153532 | 24 | 173 | 6.4 | 16.1 | 0.00 | 0.00 | 0.00 | 44 | 1012.2 |
| 20260507152529 | 25 | 174 | 4.8 | 9.7 | 0.00 | 0.00 | 0.00 | 42 | 1012.2 |
| 20260507151546 | 25 | 173 | 4.8 | 16.1 | 0.00 | 0.00 | 0.00 | 42 | 1012.2 |
| 20260507150602 | 25 | 176 | 6.4 | 19.3 | 0.00 | 0.00 | 0.00 | 42 | 1012.2 |
| 20260507145519 | 25 | 161 | 4.8 | 9.7 | 0.00 | 0.00 | 0.00 | 43 | 1012.2 |
| 20260507144556 | 25 | 172 | 4.8 | 9.7 | 0.00 | 0.00 | 0.00 | 43 | 1012.2 |
| 20260507143550 | 25 | 175 | 6.4 | 14.5 | 0.00 | 0.00 | 0.00 | 43 | 1012.2 |
| 20260507142526 | 25 | 171 | 6.4 | 17.7 | 0.00 | 0.00 | 0.00 | 42 | 1012.1 |
| 20260507141522 | 25 | 167 | 3.2 | 9.7 | 0.00 | 0.00 | 0.00 | 42 | 1012.0 |
| 20260507140519 | 25 | 176 | 6.4 | 17.7 | 0.00 | 0.00 | 0.00 | 42 | 1011.9 |
| 20260507135556 | 26 | 179 | 4.8 | 9.7 | 0.00 | 0.00 | 0.00 | 42 | 1012.0 |
| 20260507134531 | 26 | 163 | 6.4 | 19.3 | 0.00 | 0.00 | 0.00 | 41 | 1012.1 |
| 20260507133527 | 26 | 174 | 4.8 | 9.7 | 0.00 | 0.00 | 0.00 | 41 | 1012.1 |
| 20260507132524 | 26 | 172 | 6.4 | 12.9 | 0.00 | 0.00 | 0.00 | 41 | 1012.1 |
| 20260507131520 | 26 | 178 | 6.4 | 14.5 | 0.00 | 0.00 | 0.00 | 41 | 1012.1 |
| 20260507130537 | 26 | 178 | 6.4 | 24.1 | 0.00 | 0.00 | 0.00 | 41 | 1012.2 |
| 20260507125553 | 26 | 178 | 6.4 | 14.5 | 0.00 | 0.00 | 0.00 | 41 | 1012.4 |
| 20260507124534 | 26 | 178 | 4.8 | 12.9 | 0.00 | 0.00 | 0.00 | 41 | 1012.5 |
| 20260507123523 | 26 | 178 | 6.4 | 17.7 | 0.00 | 0.00 | 0.00 | 42 | 1012.6 |
| 20260507122520 | 26 | 180 | 8.0 | 20.9 | 0.00 | 0.00 | 0.00 | 42 | 1012.7 |
| 20260507121516 | 26 | 177 | 6.4 | 19.3 | 0.00 | 0.00 | 0.00 | 42 | 1012.7 |
| 20260507120533 | 26 | 173 | 6.4 | 20.9 | 0.00 | 0.00 | 0.00 | 42 | 1012.7 |
| 20260507115529 | 26 | 178 | 6.4 | 17.7 | 0.00 | 0.00 | 0.00 | 43 | 1012.7 |
| 20260507114525 | 26 | 179 | 6.4 | 19.3 | 0.00 | 0.00 | 0.00 | 44 | 1013.0 |
| 20260507113521 | 26 | 176 | 4.8 | 19.3 | 0.00 | 0.00 | 0.00 | 44 | 1013.0 |
| 20260507112517 | 26 | 185 | 4.8 | 12.9 | 0.00 | 0.00 | 0.00 | 44 | 1013.2 |
| 20260507111534 | 26 | 191 | 6.4 | 25.7 | 0.00 | 0.00 | 0.00 | 44 | 1013.4 |
| 20260507110530 | 26 | 190 | 6.4 | 14.5 | 0.00 | 0.00 | 0.00 | 44 | 1013.4 |
| 20260507105526 | 26 | 150 | 3.2 | 9.7 | 0.00 | 0.00 | 0.00 | 46 | 1013.5 |
| 20260507104522 | 26 | 171 | 3.2 | 9.7 | 0.00 | 0.00 | 0.00 | 46 | 1013.6 |
| 20260507103519 | 26 | 189 | 4.8 | 11.3 | 0.00 | 0.00 | 0.00 | 46 | 1013.7 |
| 20260507102535 | 26 | 191 | 3.2 | 9.7 | 0.00 | 0.00 | 0.00 | 46 | 1013.7 |
| 20260507101532 | 25 | 169 | 3.2 | 9.7 | 0.00 | 0.00 | 0.00 | 47 | 1013.9 |
| 20260507100528 | 25 | 188 | 4.8 | 16.1 | 0.00 | 0.00 | 0.00 | 46 | 1014.1 |
| 20260507095523 | 25 | 183 | 4.8 | 12.9 | 0.00 | 0.00 | 0.00 | 47 | 1014.1 |
| 20260507094521 | 25 | 193 | 3.2 | 8.0 | 0.00 | 0.00 | 0.00 | 48 | 1014.2 |
| 20260507093517 | 24 | 168 | 3.2 | 6.4 | 0.00 | 0.00 | 0.00 | 48 | 1014.2 |
| 20260507092533 | 24 | 198 | 3.2 | 9.7 | 0.00 | 0.00 | 0.00 | 49 | 1014.3 |
| 20260507091529 | 24 | 168 | 3.2 | 9.7 | 0.00 | 0.00 | 0.00 | 48 | 1014.4 |
| 20260507090526 | 23 | 181 | 4.8 | 11.3 | 0.00 | 0.00 | 0.00 | 50 | 1014.4 |
| 20260507085526 | 23 | 173 | 4.8 | 12.9 | 0.00 | 0.00 | 0.00 | 51 | 1014.5 |
| 20260507084517 | 22 | 179 | 4.8 | 9.7 | 0.00 | 0.00 | 0.00 | 52 | 1014.6 |
| 20260507083553 | 22 | 190 | 4.8 | 14.5 | 0.00 | 0.00 | 0.00 | 52 | 1014.6 |
| 20260507082550 | 22 | 196 | 6.4 | 14.5 | 0.00 | 0.00 | 0.00 | 52 | 1014.5 |
| 20260507081527 | 22 | 174 | 4.8 | 9.7 | 0.00 | 0.00 | 0.00 | 53 | 1014.4 |
| 20260507080522 | 21 | 187 | 6.4 | 16.1 | 0.00 | 0.00 | 0.00 | 53 | 1014.4 |
| 20260507075518 | 21 | 177 | 4.8 | 9.7 | 0.00 | 0.00 | 0.00 | 55 | 1014.5 |
| 20260507074534 | 21 | 165 | 3.2 | 6.4 | 0.00 | 0.00 | 0.00 | 55 | 1014.5 |
| 20260507073531 | 21 | 159 | 3.2 | 9.7 | 0.00 | 0.00 | 0.00 | 53 | 1014.6 |
| 20260507072527 | 20 | 171 | 6.4 | 9.7 | 0.00 | 0.00 | 0.00 | 56 | 1014.7 |
| 20260507071523 | 20 | 164 | 3.2 | 9.7 | 0.00 | 0.00 | 0.00 | 56 | 1014.7 |
| 20260507070525 | 19 | 180 | 4.8 | 9.7 | 0.00 | 0.00 | 0.00 | 58 | 1014.7 |
| 20260507065555 | 19 | 176 | 6.4 | 14.5 | 0.00 | 0.00 | 0.00 | 58 | 1014.6 |
| 20260507064532 | 18 | 177 | 4.8 | 9.7 | 0.00 | 0.00 | 0.00 | 60 | 1014.7 |